Ledbetter, Texas
Current Conditions -  °F | °C
As of 10:55 PM on Friday 19 Dec 2014 (Local Time) from KGYB Reporting Station
Overcast Overcast  
Wind Chill:   Ceiling: 1000
Heat Index:   Visibility: 7mi
Dew Point:   Wind: 7mph
Humidity: 90%   Direction: 20°NNE
Pressure: 30.21"   Gusts: NA
Location:  30.15°N, 96.79°W
Report Text: KGYB 200455Z AUTO 02006KT 7SM OVC010 10/08 A3021 RMK AO2 T00950079
Loading
Personal Weather Stations






























Interactive Weather Map New forecast layout! Learn more

10-Day Weather Forecast

Advertisements
Track Severe Weather on mobile